sensor_id;sensor_type;location;lat;lon;timestamp;pressure;altitude;pressure_sealevel;temperature;humidity
52935;BME280;38802;50.198;19.796;2023-02-17T00:01:31;96661.09;;;0.74;83.49
52935;BME280;38802;50.198;19.796;2023-02-17T00:03:59;96665.56;;;0.73;83.24
52935;BME280;38802;50.198;19.796;2023-02-17T00:06:29;96668.20;;;0.72;83.46
52935;BME280;38802;50.198;19.796;2023-02-17T00:08:58;96667.36;;;0.72;83.40
52935;BME280;38802;50.198;19.796;2023-02-17T00:11:27;96669.04;;;0.72;83.47
52935;BME280;38802;50.198;19.796;2023-02-17T00:13:55;96670.02;;;0.74;83.62
52935;BME280;38802;50.198;19.796;2023-02-17T00:16:26;96668.77;;;0.75;83.46
52935;BME280;38802;50.198;19.796;2023-02-17T00:18:56;96665.19;;;0.74;83.44
52935;BME280;38802;50.198;19.796;2023-02-17T00:21:28;96665.46;;;0.76;83.39
52935;BME280;38802;50.198;19.796;2023-02-17T00:23:57;96658.99;;;0.80;83.68
52935;BME280;38802;50.198;19.796;2023-02-17T00:26:25;96662.85;;;0.82;83.62
52935;BME280;38802;50.198;19.796;2023-02-17T00:28:54;96661.11;;;0.82;83.61
52935;BME280;38802;50.198;19.796;2023-02-17T00:31:22;96659.33;;;0.84;83.76
52935;BME280;38802;50.198;19.796;2023-02-17T00:33:54;96666.12;;;0.86;83.81
52935;BME280;38802;50.198;19.796;2023-02-17T00:36:24;96656.70;;;0.86;83.57
52935;BME280;38802;50.198;19.796;2023-02-17T00:38:54;96657.34;;;0.88;83.73
52935;BME280;38802;50.198;19.796;2023-02-17T00:41:23;96653.48;;;0.91;83.61
52935;BME280;38802;50.198;19.796;2023-02-17T00:44:20;96649.38;;;0.95;83.64
52935;BME280;38802;50.198;19.796;2023-02-17T00:46:50;96649.88;;;0.96;83.63
52935;BME280;38802;50.198;19.796;2023-02-17T00:49:25;96645.27;;;0.96;83.66
52935;BME280;38802;50.198;19.796;2023-02-17T00:51:53;96645.51;;;0.99;83.87
52935;BME280;38802;50.198;19.796;2023-02-17T00:54:21;96640.81;;;1.00;83.57
52935;BME280;38802;50.198;19.796;2023-02-17T00:56:49;96635.33;;;1.00;83.68
52935;BME280;38802;50.198;19.796;2023-02-17T00:59:17;96636.48;;;1.01;83.56
52935;BME280;38802;50.198;19.796;2023-02-17T01:01:46;96636.20;;;1.04;83.61
52935;BME280;38802;50.198;19.796;2023-02-17T01:04:14;96633.09;;;1.05;83.59
52935;BME280;38802;50.198;19.796;2023-02-17T01:06:42;96623.50;;;1.05;83.75
52935;BME280;38802;50.198;19.796;2023-02-17T01:09:12;96626.70;;;1.07;83.58
52935;BME280;38802;50.198;19.796;2023-02-17T01:11:41;96625.23;;;1.09;83.66
52935;BME280;38802;50.198;19.796;2023-02-17T01:14:11;96620.11;;;1.13;83.67
52935;BME280;38802;50.198;19.796;2023-02-17T01:16:44;96620.23;;;1.14;83.64
52935;BME280;38802;50.198;19.796;2023-02-17T01:19:16;96617.31;;;1.15;83.59
52935;BME280;38802;50.198;19.796;2023-02-17T01:21:48;96610.75;;;1.16;83.56
52935;BME280;38802;50.198;19.796;2023-02-17T01:24:16;96604.58;;;1.17;83.61
52935;BME280;38802;50.198;19.796;2023-02-17T01:26:44;96602.25;;;1.19;83.57
52935;BME280;38802;50.198;19.796;2023-02-17T01:29:12;96599.73;;;1.22;83.57
52935;BME280;38802;50.198;19.796;2023-02-17T01:31:40;96593.70;;;1.23;83.57
52935;BME280;38802;50.198;19.796;2023-02-17T01:34:11;96593.27;;;1.25;83.63
52935;BME280;38802;50.198;19.796;2023-02-17T01:36:39;96587.39;;;1.27;83.48
52935;BME280;38802;50.198;19.796;2023-02-17T01:39:13;96588.32;;;1.30;83.38
52935;BME280;38802;50.198;19.796;2023-02-17T01:41:41;96585.24;;;1.34;83.63
52935;BME280;38802;50.198;19.796;2023-02-17T01:44:18;96588.57;;;1.37;83.56
52935;BME280;38802;50.198;19.796;2023-02-17T01:46:49;96586.33;;;1.41;83.54
52935;BME280;38802;50.198;19.796;2023-02-17T01:49:27;96587.38;;;1.45;83.48
52935;BME280;38802;50.198;19.796;2023-02-17T01:52:15;96580.88;;;1.48;83.38
52935;BME280;38802;50.198;19.796;2023-02-17T01:54:51;96575.09;;;1.52;83.33
52935;BME280;38802;50.198;19.796;2023-02-17T01:57:23;96569.36;;;1.53;83.08
52935;BME280;38802;50.198;19.796;2023-02-17T01:59:53;96568.90;;;1.56;83.20
52935;BME280;38802;50.198;19.796;2023-02-17T02:02:21;96564.96;;;1.61;83.30
52935;BME280;38802;50.198;19.796;2023-02-17T02:04:51;96561.98;;;1.62;83.24
52935;BME280;38802;50.198;19.796;2023-02-17T02:07:25;96558.76;;;1.66;83.08
52935;BME280;38802;50.198;19.796;2023-02-17T02:09:56;96562.70;;;1.70;83.09
52935;BME280;38802;50.198;19.796;2023-02-17T02:12:26;96564.27;;;1.73;83.10
52935;BME280;38802;50.198;19.796;2023-02-17T02:15:05;96568.96;;;1.76;82.99
52935;BME280;38802;50.198;19.796;2023-02-17T02:23:14;96571.11;;;1.86;82.75
52935;BME280;38802;50.198;19.796;2023-02-17T02:26:10;96571.84;;;1.89;82.65
52935;BME280;38802;50.198;19.796;2023-02-17T02:29:13;96573.38;;;1.93;82.74
52935;BME280;38802;50.198;19.796;2023-02-17T02:35:01;96557.76;;;1.98;82.17
52935;BME280;38802;50.198;19.796;2023-02-17T02:37:40;96556.33;;;1.99;82.09
52935;BME280;38802;50.198;19.796;2023-02-17T02:40:10;96554.66;;;2.02;82.13
52935;BME280;38802;50.198;19.796;2023-02-17T02:42:39;96553.02;;;2.04;82.05
52935;BME280;38802;50.198;19.796;2023-02-17T02:45:09;96557.34;;;2.03;82.03
52935;BME280;38802;50.198;19.796;2023-02-17T02:47:51;96553.50;;;2.05;81.89
52935;BME280;38802;50.198;19.796;2023-02-17T02:50:33;96555.43;;;2.04;81.90
52935;BME280;38802;50.198;19.796;2023-02-17T03:04:12;96543.36;;;2.01;81.54
52935;BME280;38802;50.198;19.796;2023-02-17T03:07:13;96540.34;;;2.00;81.86
52935;BME280;38802;50.198;19.796;2023-02-17T03:09:40;96537.74;;;2.01;81.72
52935;BME280;38802;50.198;19.796;2023-02-17T03:12:08;96536.11;;;2.03;81.64
52935;BME280;38802;50.198;19.796;2023-02-17T03:14:37;96541.95;;;2.03;81.65
52935;BME280;38802;50.198;19.796;2023-02-17T03:17:05;96540.66;;;2.05;81.39
52935;BME280;38802;50.198;19.796;2023-02-17T03:19:33;96539.29;;;2.04;81.51
52935;BME280;38802;50.198;19.796;2023-02-17T03:22:16;96538.13;;;2.04;81.46
52935;BME280;38802;50.198;19.796;2023-02-17T03:24:47;96538.80;;;2.04;81.04
52935;BME280;38802;50.198;19.796;2023-02-17T03:27:15;96540.21;;;2.03;81.35
52935;BME280;38802;50.198;19.796;2023-02-17T03:29:43;96540.42;;;2.02;81.37
52935;BME280;38802;50.198;19.796;2023-02-17T03:32:11;96545.04;;;2.02;81.10
52935;BME280;38802;50.198;19.796;2023-02-17T03:34:39;96544.89;;;2.02;80.91
52935;BME280;38802;50.198;19.796;2023-02-17T03:37:07;96542.79;;;2.03;80.69
52935;BME280;38802;50.198;19.796;2023-02-17T03:39:35;96542.48;;;2.02;81.04
52935;BME280;38802;50.198;19.796;2023-02-17T03:42:03;96539.11;;;2.01;80.93
52935;BME280;38802;50.198;19.796;2023-02-17T03:44:31;96531.67;;;2.02;80.92
52935;BME280;38802;50.198;19.796;2023-02-17T03:47:00;96532.60;;;2.04;80.70
52935;BME280;38802;50.198;19.796;2023-02-17T03:49:28;96532.06;;;2.05;80.84
52935;BME280;38802;50.198;19.796;2023-02-17T03:51:56;96533.94;;;2.05;80.94
52935;BME280;38802;50.198;19.796;2023-02-17T03:54:25;96535.65;;;2.05;81.07
52935;BME280;38802;50.198;19.796;2023-02-17T03:56:54;96530.94;;;2.07;80.79
52935;BME280;38802;50.198;19.796;2023-02-17T03:59:22;96532.02;;;2.10;80.91
52935;BME280;38802;50.198;19.796;2023-02-17T04:01:50;96532.33;;;2.10;81.11
52935;BME280;38802;50.198;19.796;2023-02-17T04:04:18;96527.77;;;2.13;80.87
52935;BME280;38802;50.198;19.796;2023-02-17T04:06:46;96526.09;;;2.16;80.78
52935;BME280;38802;50.198;19.796;2023-02-17T04:09:14;96517.15;;;2.17;80.81
52935;BME280;38802;50.198;19.796;2023-02-17T04:11:42;96515.89;;;2.19;80.80
52935;BME280;38802;50.198;19.796;2023-02-17T04:14:11;96517.45;;;2.22;80.64
52935;BME280;38802;50.198;19.796;2023-02-17T04:16:39;96515.61;;;2.25;80.88
52935;BME280;38802;50.198;19.796;2023-02-17T04:19:07;96516.02;;;2.27;80.75
52935;BME280;38802;50.198;19.796;2023-02-17T04:21:36;96509.98;;;2.28;80.62
52935;BME280;38802;50.198;19.796;2023-02-17T04:24:04;96516.64;;;2.29;80.49
52935;BME280;38802;50.198;19.796;2023-02-17T04:26:32;96511.09;;;2.30;80.66
52935;BME280;38802;50.198;19.796;2023-02-17T04:29:03;96511.71;;;2.31;80.57
52935;BME280;38802;50.198;19.796;2023-02-17T04:31:31;96512.97;;;2.34;80.54
52935;BME280;38802;50.198;19.796;2023-02-17T04:33:59;96509.89;;;2.34;80.38
52935;BME280;38802;50.198;19.796;2023-02-17T04:36:27;96510.16;;;2.35;80.18
52935;BME280;38802;50.198;19.796;2023-02-17T04:38:55;96508.67;;;2.38;80.13
52935;BME280;38802;50.198;19.796;2023-02-17T04:41:23;96507.58;;;2.39;80.10
52935;BME280;38802;50.198;19.796;2023-02-17T04:43:51;96505.47;;;2.40;80.40
52935;BME280;38802;50.198;19.796;2023-02-17T04:46:19;96507.94;;;2.42;80.21
52935;BME280;38802;50.198;19.796;2023-02-17T04:48:48;96505.96;;;2.44;80.11
52935;BME280;38802;50.198;19.796;2023-02-17T04:51:16;96503.52;;;2.45;80.19
52935;BME280;38802;50.198;19.796;2023-02-17T04:53:44;96503.84;;;2.46;80.23
52935;BME280;38802;50.198;19.796;2023-02-17T04:56:12;96504.96;;;2.47;80.04
52935;BME280;38802;50.198;19.796;2023-02-17T04:58:40;96506.95;;;2.49;80.02
52935;BME280;38802;50.198;19.796;2023-02-17T05:01:08;96503.42;;;2.51;79.98
52935;BME280;38802;50.198;19.796;2023-02-17T05:03:36;96501.64;;;2.52;80.17
52935;BME280;38802;50.198;19.796;2023-02-17T05:06:04;96502.74;;;2.54;80.20
52935;BME280;38802;50.198;19.796;2023-02-17T05:08:32;96500.10;;;2.56;80.14
52935;BME280;38802;50.198;19.796;2023-02-17T05:11:00;96498.41;;;2.56;80.20
52935;BME280;38802;50.198;19.796;2023-02-17T05:13:29;96494.39;;;2.57;80.34
52935;BME280;38802;50.198;19.796;2023-02-17T05:15:57;96497.36;;;2.60;80.25
52935;BME280;38802;50.198;19.796;2023-02-17T05:18:26;96499.71;;;2.61;80.27
52935;BME280;38802;50.198;19.796;2023-02-17T05:20:54;96496.74;;;2.62;80.52
52935;BME280;38802;50.198;19.796;2023-02-17T05:23:22;96493.84;;;2.62;80.38
52935;BME280;38802;50.198;19.796;2023-02-17T05:25:50;96492.23;;;2.64;80.47
52935;BME280;38802;50.198;19.796;2023-02-17T05:28:18;96496.27;;;2.65;80.41
52935;BME280;38802;50.198;19.796;2023-02-17T05:30:48;96496.47;;;2.68;80.49
52935;BME280;38802;50.198;19.796;2023-02-17T05:33:16;96491.73;;;2.71;80.50
52935;BME280;38802;50.198;19.796;2023-02-17T05:35:44;96496.01;;;2.71;80.78
52935;BME280;38802;50.198;19.796;2023-02-17T05:38:12;96495.77;;;2.72;80.82
52935;BME280;38802;50.198;19.796;2023-02-17T05:40:40;96493.48;;;2.74;80.68
52935;BME280;38802;50.198;19.796;2023-02-17T05:43:08;96493.03;;;2.72;80.82
52935;BME280;38802;50.198;19.796;2023-02-17T05:45:36;96492.48;;;2.73;80.98
52935;BME280;38802;50.198;19.796;2023-02-17T05:48:04;96488.73;;;2.72;81.07
52935;BME280;38802;50.198;19.796;2023-02-17T05:50:32;96487.09;;;2.74;80.79
52935;BME280;38802;50.198;19.796;2023-02-17T05:53:02;96485.25;;;2.73;80.94
52935;BME280;38802;50.198;19.796;2023-02-17T05:55:31;96482.04;;;2.76;81.00
52935;BME280;38802;50.198;19.796;2023-02-17T05:57:59;96483.63;;;2.75;81.02
52935;BME280;38802;50.198;19.796;2023-02-17T06:00:27;96484.84;;;2.75;81.11
52935;BME280;38802;50.198;19.796;2023-02-17T06:02:55;96486.00;;;2.76;80.99
52935;BME280;38802;50.198;19.796;2023-02-17T06:05:23;96485.86;;;2.75;81.16
52935;BME280;38802;50.198;19.796;2023-02-17T06:07:52;96486.70;;;2.75;80.87
52935;BME280;38802;50.198;19.796;2023-02-17T06:10:20;96476.59;;;2.75;81.02
52935;BME280;38802;50.198;19.796;2023-02-17T06:12:51;96467.83;;;2.75;81.03
52935;BME280;38802;50.198;19.796;2023-02-17T06:15:19;96466.67;;;2.74;81.11
52935;BME280;38802;50.198;19.796;2023-02-17T06:17:47;96461.71;;;2.74;81.20
52935;BME280;38802;50.198;19.796;2023-02-17T06:20:16;96464.66;;;2.73;81.33
52935;BME280;38802;50.198;19.796;2023-02-17T06:22:44;96456.61;;;2.73;81.20
52935;BME280;38802;50.198;19.796;2023-02-17T06:25:12;96456.58;;;2.74;81.21
52935;BME280;38802;50.198;19.796;2023-02-17T06:27:40;96451.81;;;2.73;81.07
52935;BME280;38802;50.198;19.796;2023-02-17T06:30:11;96451.96;;;2.73;81.31
52935;BME280;38802;50.198;19.796;2023-02-17T06:32:39;96456.90;;;2.74;81.34
52935;BME280;38802;50.198;19.796;2023-02-17T06:35:07;96450.94;;;2.73;81.53
52935;BME280;38802;50.198;19.796;2023-02-17T06:37:36;96448.23;;;2.76;81.58
52935;BME280;38802;50.198;19.796;2023-02-17T06:40:04;96449.05;;;2.77;81.57
52935;BME280;38802;50.198;19.796;2023-02-17T06:42:33;96454.33;;;2.77;81.41
52935;BME280;38802;50.198;19.796;2023-02-17T06:45:01;96461.05;;;2.80;81.50
52935;BME280;38802;50.198;19.796;2023-02-17T06:47:33;96458.02;;;2.79;81.49
52935;BME280;38802;50.198;19.796;2023-02-17T06:50:02;96461.58;;;2.80;81.46
52935;BME280;38802;50.198;19.796;2023-02-17T06:52:30;96457.77;;;2.85;81.71
52935;BME280;38802;50.198;19.796;2023-02-17T06:54:58;96464.39;;;2.86;81.32
52935;BME280;38802;50.198;19.796;2023-02-17T06:57:26;96467.71;;;2.88;81.55
52935;BME280;38802;50.198;19.796;2023-02-17T06:59:55;96468.76;;;2.95;81.74
52935;BME280;38802;50.198;19.796;2023-02-17T07:02:23;96471.73;;;2.97;81.87
52935;BME280;38802;50.198;19.796;2023-02-17T07:04:51;96474.60;;;3.02;81.87
52935;BME280;38802;50.198;19.796;2023-02-17T07:07:19;96476.64;;;3.06;81.72
52935;BME280;38802;50.198;19.796;2023-02-17T07:09:47;96471.26;;;3.11;81.72
52935;BME280;38802;50.198;19.796;2023-02-17T07:12:15;96470.10;;;3.17;81.80
52935;BME280;38802;50.198;19.796;2023-02-17T07:14:43;96476.18;;;3.22;81.95
52935;BME280;38802;50.198;19.796;2023-02-17T07:17:11;96478.77;;;3.29;81.86
52935;BME280;38802;50.198;19.796;2023-02-17T07:19:39;96475.13;;;3.37;81.71
52935;BME280;38802;50.198;19.796;2023-02-17T07:22:07;96476.95;;;3.41;81.72
52935;BME280;38802;50.198;19.796;2023-02-17T07:24:35;96471.17;;;3.48;81.71
52935;BME280;38802;50.198;19.796;2023-02-17T07:27:04;96471.41;;;3.53;81.79
52935;BME280;38802;50.198;19.796;2023-02-17T07:29:34;96470.39;;;3.59;81.67
52935;BME280;38802;50.198;19.796;2023-02-17T07:32:02;96467.83;;;3.63;81.58
52935;BME280;38802;50.198;19.796;2023-02-17T07:34:30;96463.49;;;3.66;81.82
52935;BME280;38802;50.198;19.796;2023-02-17T07:36:58;96461.02;;;3.71;81.65
52935;BME280;38802;50.198;19.796;2023-02-17T07:39:28;96457.06;;;3.74;81.46
52935;BME280;38802;50.198;19.796;2023-02-17T07:41:56;96453.40;;;3.79;81.56
52935;BME280;38802;50.198;19.796;2023-02-17T07:44:28;96450.10;;;3.86;81.43
52935;BME280;38802;50.198;19.796;2023-02-17T07:46:56;96442.41;;;3.92;81.50
52935;BME280;38802;50.198;19.796;2023-02-17T07:49:26;96440.38;;;3.98;81.41
52935;BME280;38802;50.198;19.796;2023-02-17T07:51:54;96439.48;;;4.05;81.21
52935;BME280;38802;50.198;19.796;2023-02-17T07:54:22;96441.41;;;4.11;81.49
52935;BME280;38802;50.198;19.796;2023-02-17T07:56:50;96438.58;;;4.16;81.31
52935;BME280;38802;50.198;19.796;2023-02-17T07:59:18;96439.89;;;4.20;81.30
52935;BME280;38802;50.198;19.796;2023-02-17T08:01:46;96441.37;;;4.24;81.27
52935;BME280;38802;50.198;19.796;2023-02-17T08:04:15;96440.97;;;4.29;81.13
52935;BME280;38802;50.198;19.796;2023-02-17T08:06:43;96439.07;;;4.32;80.99
52935;BME280;38802;50.198;19.796;2023-02-17T08:09:11;96429.63;;;4.35;81.05
52935;BME280;38802;50.198;19.796;2023-02-17T08:11:58;96425.73;;;4.37;80.86
52935;BME280;38802;50.198;19.796;2023-02-17T08:14:45;96423.88;;;4.39;80.79
52935;BME280;38802;50.198;19.796;2023-02-17T08:17:13;96422.58;;;4.41;80.91
52935;BME280;38802;50.198;19.796;2023-02-17T08:19:41;96416.28;;;4.47;80.73
52935;BME280;38802;50.198;19.796;2023-02-17T08:22:17;96419.36;;;4.50;80.74
52935;BME280;38802;50.198;19.796;2023-02-17T08:24:45;96417.57;;;4.57;80.80
52935;BME280;38802;50.198;19.796;2023-02-17T08:27:14;96421.67;;;4.64;80.87
52935;BME280;38802;50.198;19.796;2023-02-17T08:29:42;96423.63;;;4.72;80.72
52935;BME280;38802;50.198;19.796;2023-02-17T08:32:11;96429.91;;;4.80;80.28
52935;BME280;38802;50.198;19.796;2023-02-17T08:34:40;96423.87;;;4.86;80.59
52935;BME280;38802;50.198;19.796;2023-02-17T08:37:09;96414.20;;;4.95;80.17
52935;BME280;38802;50.198;19.796;2023-02-17T08:39:37;96407.59;;;5.03;80.31
52935;BME280;38802;50.198;19.796;2023-02-17T08:42:05;96402.14;;;5.13;80.18
52935;BME280;38802;50.198;19.796;2023-02-17T08:44:35;96400.98;;;5.25;80.15
52935;BME280;38802;50.198;19.796;2023-02-17T08:47:04;96393.86;;;5.34;79.78
52935;BME280;38802;50.198;19.796;2023-02-17T08:49:33;96396.20;;;5.42;80.07
52935;BME280;38802;50.198;19.796;2023-02-17T08:52:02;96396.13;;;5.49;79.71
52935;BME280;38802;50.198;19.796;2023-02-17T09:00:31;96397.91;;;5.50;78.66
52935;BME280;38802;50.198;19.796;2023-02-17T09:02:58;96393.60;;;5.48;78.52
52935;BME280;38802;50.198;19.796;2023-02-17T09:05:25;96393.23;;;5.45;78.44
52935;BME280;38802;50.198;19.796;2023-02-17T09:07:52;96385.75;;;5.44;78.40
52935;BME280;38802;50.198;19.796;2023-02-17T09:10:19;96381.38;;;5.42;78.28
52935;BME280;38802;50.198;19.796;2023-02-17T09:12:45;96378.42;;;5.40;78.23
52935;BME280;38802;50.198;19.796;2023-02-17T09:15:13;96381.00;;;5.36;78.13
52935;BME280;38802;50.198;19.796;2023-02-17T09:17:40;96379.07;;;5.34;78.29
52935;BME280;38802;50.198;19.796;2023-02-17T09:20:08;96377.99;;;5.35;78.11
52935;BME280;38802;50.198;19.796;2023-02-17T09:22:50;96379.45;;;5.33;78.33
52935;BME280;38802;50.198;19.796;2023-02-17T09:25:18;96385.51;;;5.33;78.24
52935;BME280;38802;50.198;19.796;2023-02-17T09:27:45;96376.85;;;5.31;78.12
52935;BME280;38802;50.198;19.796;2023-02-17T09:30:12;96376.57;;;5.30;78.44
52935;BME280;38802;50.198;19.796;2023-02-17T09:32:42;96371.58;;;5.29;78.42
52935;BME280;38802;50.198;19.796;2023-02-17T09:35:11;96370.37;;;5.33;78.50
52935;BME280;38802;50.198;19.796;2023-02-17T09:37:38;96369.08;;;5.31;78.54
52935;BME280;38802;50.198;19.796;2023-02-17T09:40:06;96363.69;;;5.26;78.83
52935;BME280;38802;50.198;19.796;2023-02-17T09:42:38;96361.11;;;5.23;79.03
52935;BME280;38802;50.198;19.796;2023-02-17T09:45:11;96359.04;;;5.26;79.17
52935;BME280;38802;50.198;19.796;2023-02-17T09:48:19;96359.60;;;5.31;79.47
52935;BME280;38802;50.198;19.796;2023-02-17T09:50:55;96360.15;;;5.34;79.62
52935;BME280;38802;50.198;19.796;2023-02-17T09:53:59;96361.27;;;5.35;79.59
52935;BME280;38802;50.198;19.796;2023-02-17T09:56:33;96361.84;;;5.37;79.76
52935;BME280;38802;50.198;19.796;2023-02-17T09:59:10;96360.23;;;5.44;79.71
52935;BME280;38802;50.198;19.796;2023-02-17T10:01:41;96359.92;;;5.46;79.67
52935;BME280;38802;50.198;19.796;2023-02-17T10:04:13;96357.84;;;5.49;79.72
52935;BME280;38802;50.198;19.796;2023-02-17T10:06:45;96359.13;;;5.53;79.60
52935;BME280;38802;50.198;19.796;2023-02-17T10:09:24;96356.56;;;5.56;79.48
52935;BME280;38802;50.198;19.796;2023-02-17T10:12:11;96350.79;;;5.57;79.55
52935;BME280;38802;50.198;19.796;2023-02-17T10:14:57;96344.84;;;5.59;79.58
52935;BME280;38802;50.198;19.796;2023-02-17T10:23:25;96340.27;;;5.63;79.52
52935;BME280;38802;50.198;19.796;2023-02-17T10:26:11;96340.64;;;5.63;79.55
52935;BME280;38802;50.198;19.796;2023-02-17T10:28:51;96338.89;;;5.63;79.68
52935;BME280;38802;50.198;19.796;2023-02-17T10:34:01;96333.00;;;5.67;79.76
52935;BME280;38802;50.198;19.796;2023-02-17T10:36:42;96328.21;;;5.69;79.74
52935;BME280;38802;50.198;19.796;2023-02-17T10:39:23;96324.97;;;5.68;79.76
52935;BME280;38802;50.198;19.796;2023-02-17T10:41:55;96315.21;;;5.70;79.78
52935;BME280;38802;50.198;19.796;2023-02-17T10:44:23;96313.14;;;5.68;79.89
52935;BME280;38802;50.198;19.796;2023-02-17T10:46:52;96307.96;;;5.68;80.02
52935;BME280;38802;50.198;19.796;2023-02-17T10:49:29;96302.16;;;5.69;80.00
52935;BME280;38802;50.198;19.796;2023-02-17T10:52:15;96297.02;;;5.72;80.07
52935;BME280;38802;50.198;19.796;2023-02-17T10:54:53;96298.40;;;5.72;80.18
52935;BME280;38802;50.198;19.796;2023-02-17T10:57:27;96295.39;;;5.73;80.25
52935;BME280;38802;50.198;19.796;2023-02-17T10:59:57;96284.27;;;5.75;80.38
52935;BME280;38802;50.198;19.796;2023-02-17T11:02:34;96282.14;;;5.70;80.47
52935;BME280;38802;50.198;19.796;2023-02-17T11:05:03;96274.95;;;5.60;80.64
52935;BME280;38802;50.198;19.796;2023-02-17T11:10:02;96271.58;;;5.54;80.92
52935;BME280;38802;50.198;19.796;2023-02-17T11:12:39;96262.29;;;5.56;81.10
52935;BME280;38802;50.198;19.796;2023-02-17T11:15:16;96255.01;;;5.57;81.24
52935;BME280;38802;50.198;19.796;2023-02-17T11:17:45;96255.92;;;5.56;81.52
52935;BME280;38802;50.198;19.796;2023-02-17T11:22:58;96248.38;;;5.53;81.60
52935;BME280;38802;50.198;19.796;2023-02-17T11:25:28;96241.02;;;5.54;81.85
52935;BME280;38802;50.198;19.796;2023-02-17T11:27:59;96234.84;;;5.51;81.87
52935;BME280;38802;50.198;19.796;2023-02-17T11:30:28;96238.73;;;5.47;81.85
52935;BME280;38802;50.198;19.796;2023-02-17T11:32:55;96238.52;;;5.45;81.98
52935;BME280;38802;50.198;19.796;2023-02-17T11:38:08;96235.77;;;5.36;82.32
52935;BME280;38802;50.198;19.796;2023-02-17T11:40:36;96223.06;;;5.36;82.70
52935;BME280;38802;50.198;19.796;2023-02-17T11:43:03;96224.64;;;5.38;82.77
52935;BME280;38802;50.198;19.796;2023-02-17T11:45:39;96217.00;;;5.42;82.74
52935;BME280;38802;50.198;19.796;2023-02-17T11:48:29;96211.83;;;5.39;82.71
52935;BME280;38802;50.198;19.796;2023-02-17T11:51:09;96207.13;;;5.40;82.95
52935;BME280;38802;50.198;19.796;2023-02-17T11:54:02;96203.77;;;5.36;83.05
52935;BME280;38802;50.198;19.796;2023-02-17T11:56:37;96195.74;;;5.34;83.12
52935;BME280;38802;50.198;19.796;2023-02-17T12:02:17;96184.24;;;5.28;83.08
52935;BME280;38802;50.198;19.796;2023-02-17T12:07:29;96186.23;;;5.18;83.28
52935;BME280;38802;50.198;19.796;2023-02-17T12:15:23;96184.78;;;5.08;83.74
52935;BME280;38802;50.198;19.796;2023-02-17T12:20:44;96185.38;;;5.07;83.82
52935;BME280;38802;50.198;19.796;2023-02-17T12:25:58;96187.30;;;5.10;83.97
52935;BME280;38802;50.198;19.796;2023-02-17T12:28:40;96188.75;;;5.08;84.18
52935;BME280;38802;50.198;19.796;2023-02-17T12:34:05;96194.89;;;5.01;84.01
52935;BME280;38802;50.198;19.796;2023-02-17T12:36:38;96187.84;;;4.98;84.20
52935;BME280;38802;50.198;19.796;2023-02-17T12:39:42;96183.25;;;4.97;84.35
52935;BME280;38802;50.198;19.796;2023-02-17T12:42:26;96185.30;;;4.94;84.28
52935;BME280;38802;50.198;19.796;2023-02-17T12:44:58;96179.64;;;4.94;84.45
52935;BME280;38802;50.198;19.796;2023-02-17T12:47:48;96175.91;;;4.93;84.48
52935;BME280;38802;50.198;19.796;2023-02-17T12:50:57;96166.23;;;4.99;84.52
52935;BME280;38802;50.198;19.796;2023-02-17T12:53:38;96169.43;;;4.98;84.72
52935;BME280;38802;50.198;19.796;2023-02-17T12:56:25;96163.98;;;4.96;84.74
52935;BME280;38802;50.198;19.796;2023-02-17T12:58:55;96159.27;;;5.00;84.86
52935;BME280;38802;50.198;19.796;2023-02-17T13:01:28;96159.92;;;5.01;84.98
52935;BME280;38802;50.198;19.796;2023-02-17T13:03:58;96164.60;;;4.98;84.99
52935;BME280;38802;50.198;19.796;2023-02-17T13:06:33;96156.06;;;4.97;85.02
52935;BME280;38802;50.198;19.796;2023-02-17T13:09:16;96158.14;;;4.94;85.01
52935;BME280;38802;50.198;19.796;2023-02-17T13:11:48;96150.38;;;4.97;85.16
52935;BME280;38802;50.198;19.796;2023-02-17T13:14:27;96150.17;;;4.97;85.21
52935;BME280;38802;50.198;19.796;2023-02-17T13:16:54;96141.73;;;5.00;85.43
52935;BME280;38802;50.198;19.796;2023-02-17T13:19:32;96133.64;;;5.00;85.58
52935;BME280;38802;50.198;19.796;2023-02-17T13:22:00;96129.73;;;4.99;85.59
52935;BME280;38802;50.198;19.796;2023-02-17T13:24:36;96126.27;;;5.00;85.62
52935;BME280;38802;50.198;19.796;2023-02-17T13:27:11;96123.46;;;4.98;85.81
52935;BME280;38802;50.198;19.796;2023-02-17T13:29:38;96116.80;;;4.94;85.73
52935;BME280;38802;50.198;19.796;2023-02-17T13:32:10;96105.62;;;4.94;85.85
52935;BME280;38802;50.198;19.796;2023-02-17T13:34:42;96104.00;;;4.93;85.78
52935;BME280;38802;50.198;19.796;2023-02-17T13:40:01;96099.55;;;4.92;86.06
52935;BME280;38802;50.198;19.796;2023-02-17T13:42:41;96096.48;;;4.91;86.21
52935;BME280;38802;50.198;19.796;2023-02-17T13:47:54;96087.52;;;4.89;86.23
52935;BME280;38802;50.198;19.796;2023-02-17T13:52:55;96076.36;;;4.88;86.38
52935;BME280;38802;50.198;19.796;2023-02-17T13:55:22;96073.11;;;4.88;86.26
52935;BME280;38802;50.198;19.796;2023-02-17T13:57:54;96070.16;;;4.88;86.37
52935;BME280;38802;50.198;19.796;2023-02-17T14:07:48;96059.64;;;4.94;86.51
52935;BME280;38802;50.198;19.796;2023-02-17T14:10:26;96052.20;;;4.95;86.67
52935;BME280;38802;50.198;19.796;2023-02-17T14:13:18;96044.37;;;4.94;86.36
52935;BME280;38802;50.198;19.796;2023-02-17T14:15:54;96042.52;;;4.96;86.62
52935;BME280;38802;50.198;19.796;2023-02-17T14:18:36;96038.77;;;4.95;86.62
52935;BME280;38802;50.198;19.796;2023-02-17T14:21:05;96039.48;;;4.94;86.61
52935;BME280;38802;50.198;19.796;2023-02-17T14:23:47;96037.05;;;4.95;86.58
52935;BME280;38802;50.198;19.796;2023-02-17T14:29:12;96032.00;;;4.96;86.78
52935;BME280;38802;50.198;19.796;2023-02-17T14:31:48;96028.63;;;4.95;86.86
52935;BME280;38802;50.198;19.796;2023-02-17T14:34:30;96024.52;;;4.94;86.79
52935;BME280;38802;50.198;19.796;2023-02-17T14:37:16;96017.33;;;4.97;86.95
52935;BME280;38802;50.198;19.796;2023-02-17T14:39:44;96018.86;;;4.97;86.84
52935;BME280;38802;50.198;19.796;2023-02-17T14:42:11;96006.70;;;4.98;86.83
52935;BME280;38802;50.198;19.796;2023-02-17T14:44:38;95999.81;;;5.01;87.09